Аэропорт: Основа. Харьков

ICAO: UKHH

METAR:
2020-10-19 22:30:00
UKHH 192230Z 29002MPS 7000 NSC 04/03 Q1022 R25/0///81 NOSIG
METAR:
2020-10-19 17:10:00
TAF UKHH 191710Z 1918/2018 26003MPS 3000 BR BKN007 TX10/2012Z TN01/2003Z TEMPO 1918/1921 28006G12MPS 2100 -SHRA BKN020CB PROB40 TEMPO 1921/2006 0600 FG VV002 TEMPO 2008/2015 28006G12MPS